createdAt,value
2023-09-24T00:00:17.068Z,8
2023-09-24T00:02:48.047Z,4
2023-09-24T00:05:19.463Z,4
2023-09-24T00:07:50.556Z,4
2023-09-24T00:10:21.569Z,4
2023-09-24T00:12:52.488Z,4
2023-09-24T00:15:23.068Z,4
2023-09-24T00:17:54.556Z,4
2023-09-24T00:20:23.864Z,4
2023-09-24T00:22:55.004Z,4
2023-09-24T00:25:26.849Z,4
2023-09-24T00:27:58.230Z,8
2023-09-24T00:30:28.793Z,4
2023-09-24T00:32:59.507Z,4
2023-09-24T00:35:30.372Z,8
2023-09-24T00:38:01.262Z,6
2023-09-24T00:40:32.147Z,8
2023-09-24T00:43:02.928Z,8
2023-09-24T00:45:33.471Z,4
2023-09-24T00:48:02.923Z,3
2023-09-24T00:50:34.298Z,4
2023-09-24T00:53:05.703Z,4
2023-09-24T00:55:36.791Z,4
2023-09-24T00:58:07.547Z,0
2023-09-24T01:00:38.676Z,4
2023-09-24T01:03:09.538Z,4
2023-09-24T01:05:40.709Z,4
2023-09-24T01:08:11.464Z,4
2023-09-24T01:10:40.589Z,4
2023-09-24T01:13:11.063Z,4
2023-09-24T01:15:41.325Z,4
2023-09-24T01:18:12.104Z,0
2023-09-24T01:20:41.035Z,0
2023-09-24T01:23:11.637Z,0
2023-09-24T01:25:42.128Z,0
2023-09-24T01:28:12.885Z,0
2023-09-24T01:30:43.605Z,0
2023-09-24T01:33:14.343Z,0
2023-09-24T01:35:43.139Z,0
2023-09-24T01:38:14.513Z,0
2023-09-24T01:40:45.602Z,0
2023-09-24T01:43:16.224Z,0
2023-09-24T01:45:46.972Z,0
2023-09-24T01:48:18.248Z,4
2023-09-24T01:50:47.918Z,1
2023-09-24T01:53:18.179Z,4
2023-09-24T01:55:48.628Z,0
2023-09-24T01:58:19.468Z,0
2023-09-24T02:00:49.953Z,0
2023-09-24T02:03:19.131Z,0
2023-09-24T02:05:50.184Z,0
2023-09-24T02:08:20.796Z,0
2023-09-24T02:10:51.922Z,0
2023-09-24T02:13:22.940Z,0
2023-09-24T02:15:54.333Z,0
2023-09-24T02:18:24.196Z,0
2023-09-24T02:20:55.246Z,0
2023-09-24T02:23:26.657Z,0
2023-09-24T02:25:57.752Z,0
2023-09-24T02:28:28.534Z,0
2023-09-24T02:30:59.322Z,3
2023-09-24T02:33:30.590Z,0
2023-09-24T02:36:01.602Z,0
2023-09-24T02:38:32.541Z,0
2023-09-24T02:41:03.722Z,0
2023-09-24T02:43:35.514Z,0
2023-09-24T02:46:06.864Z,0
2023-09-24T02:48:38.080Z,0
2023-09-24T02:51:09.368Z,0
2023-09-24T02:53:40.312Z,0
2023-09-24T02:56:11.436Z,0
2023-09-24T02:58:42.453Z,0
2023-09-24T03:01:13.304Z,0
2023-09-24T03:03:44.125Z,0
2023-09-24T03:06:15.346Z,0
2023-09-24T03:08:46.754Z,0
2023-09-24T03:11:17.234Z,0
2023-09-24T03:13:48.101Z,0
2023-09-24T03:16:19.346Z,0
2023-09-24T03:18:52.271Z,0
2023-09-24T03:21:23.446Z,0
2023-09-24T03:23:54.601Z,0
2023-09-24T03:26:25.643Z,0
2023-09-24T03:28:56.943Z,0
2023-09-24T03:31:27.901Z,0
2023-09-24T03:33:58.593Z,0
2023-09-24T03:36:29.010Z,0
2023-09-24T03:39:00.404Z,0
2023-09-24T03:41:31.777Z,0
2023-09-24T03:44:02.414Z,0
2023-09-24T03:46:33.030Z,0
2023-09-24T03:49:04.230Z,0
2023-09-24T03:51:35.207Z,0
2023-09-24T03:54:06.473Z,0
2023-09-24T03:56:37.177Z,0
2023-09-24T03:59:08.120Z,0
2023-09-24T04:01:39.748Z,0
2023-09-24T04:04:10.372Z,0
2023-09-24T04:06:41.379Z,0
2023-09-24T04:09:11.529Z,0
2023-09-24T04:11:42.366Z,0
2023-09-24T04:14:13.081Z,0
2023-09-24T04:16:44.742Z,0
2023-09-24T04:19:15.766Z,0
2023-09-24T04:21:46.338Z,0
2023-09-24T04:24:17.621Z,0
2023-09-24T04:26:48.297Z,0
2023-09-24T04:29:19.489Z,0
2023-09-24T04:31:50.049Z,0
2023-09-24T04:34:20.978Z,0
2023-09-24T04:36:51.033Z,0
2023-09-24T04:39:21.725Z,0
2023-09-24T04:41:52.689Z,0
2023-09-24T04:44:22.987Z,0
2023-09-24T04:46:53.615Z,0
2023-09-24T04:49:24.470Z,0
2023-09-24T04:51:55.552Z,0
2023-09-24T04:54:26.381Z,0
2023-09-24T04:56:57.528Z,0
2023-09-24T04:59:28.520Z,0
2023-09-24T05:01:59.245Z,0
2023-09-24T05:04:30.084Z,0
2023-09-24T05:07:00.261Z,0
2023-09-24T05:09:31.032Z,0
2023-09-24T05:12:02.155Z,0
2023-09-24T05:14:32.944Z,0
2023-09-24T05:17:03.483Z,0
2023-09-24T05:19:34.550Z,0
2023-09-24T05:22:04.888Z,4
2023-09-24T05:24:36.095Z,0
2023-09-24T05:27:06.392Z,0
2023-09-24T05:29:36.831Z,3
2023-09-24T05:32:07.679Z,4
2023-09-24T05:34:38.744Z,0
2023-09-24T05:37:09.383Z,7
2023-09-24T05:39:39.792Z,0
2023-09-24T05:42:10.578Z,0
2023-09-24T05:44:42.030Z,0
2023-09-24T05:47:12.376Z,0
2023-09-24T05:49:42.862Z,0
2023-09-24T05:52:13.166Z,0
2023-09-24T05:54:43.965Z,0
2023-09-24T05:57:14.642Z,0
2023-09-24T05:59:45.429Z,0
2023-09-24T06:02:16.056Z,0
2023-09-24T06:04:47.422Z,0
2023-09-24T06:07:18.609Z,0
2023-09-24T06:09:49.110Z,0
2023-09-24T06:12:18.394Z,4
2023-09-24T06:14:49.087Z,4
2023-09-24T06:17:19.042Z,4
2023-09-24T06:19:49.065Z,4
2023-09-24T06:22:19.115Z,0
2023-09-24T06:24:49.622Z,3
2023-09-24T06:27:18.948Z,12
2023-09-24T06:29:49.006Z,4
2023-09-24T06:32:20.305Z,2
2023-09-24T06:34:51.203Z,0
2023-09-24T06:37:21.684Z,4
2023-09-24T06:39:52.530Z,4
2023-09-24T06:42:23.118Z,8
2023-09-24T06:44:53.865Z,16
2023-09-24T06:47:24.361Z,4
2023-09-24T06:49:55.034Z,10
2023-09-24T06:52:26.000Z,4
2023-09-24T06:54:55.075Z,0
2023-09-24T06:57:26.056Z,0
2023-09-24T06:59:56.925Z,0
2023-09-24T07:02:27.491Z,0
2023-09-24T07:04:58.164Z,4
2023-09-24T07:07:28.788Z,0
2023-09-24T07:09:59.193Z,12
2023-09-24T07:12:30.319Z,4
2023-09-24T07:15:00.798Z,0
2023-09-24T07:17:31.328Z,0
2023-09-24T07:20:01.460Z,0
2023-09-24T07:22:35.271Z,0
2023-09-24T07:25:05.838Z,8
2023-09-24T07:27:36.616Z,34
2023-09-24T07:30:07.481Z,4
2023-09-24T07:32:38.441Z,20
2023-09-24T07:35:07.465Z,12
2023-09-24T07:37:38.571Z,28
2023-09-24T07:40:09.482Z,24
2023-09-24T07:42:42.230Z,13
2023-09-24T07:45:10.919Z,12
2023-09-24T07:47:41.239Z,8
2023-09-24T07:50:12.233Z,28
2023-09-24T07:52:42.700Z,4
2023-09-24T07:55:12.980Z,20
2023-09-24T07:57:43.642Z,4
2023-09-24T08:00:14.052Z,0
2023-09-24T08:02:44.728Z,20
2023-09-24T08:05:15.473Z,4
2023-09-24T08:07:45.610Z,0
2023-09-24T08:10:16.430Z,4
2023-09-24T08:12:47.001Z,4
2023-09-24T08:15:17.929Z,0
2023-09-24T08:17:48.381Z,4
2023-09-24T08:20:19.617Z,12
2023-09-24T08:22:49.864Z,0
2023-09-24T08:25:20.887Z,0
2023-09-24T08:27:51.541Z,4
2023-09-24T08:30:21.266Z,0
2023-09-24T08:32:51.860Z,1
2023-09-24T08:35:22.362Z,9
2023-09-24T08:37:53.217Z,4
2023-09-24T08:40:22.493Z,11
2023-09-24T08:42:53.111Z,4
2023-09-24T08:45:24.094Z,4
2023-09-24T08:47:55.258Z,4
2023-09-24T08:50:25.809Z,4
2023-09-24T08:52:57.522Z,4
2023-09-24T08:55:27.904Z,0
2023-09-24T08:57:57.084Z,3
2023-09-24T09:00:27.872Z,0
2023-09-24T09:02:59.591Z,0
2023-09-24T09:05:29.557Z,0
2023-09-24T09:07:59.886Z,0
2023-09-24T09:10:31.047Z,0
2023-09-24T09:13:01.304Z,2
2023-09-24T09:15:32.346Z,0
2023-09-24T09:18:03.262Z,4
2023-09-24T09:20:33.715Z,4
2023-09-24T09:23:04.680Z,4
2023-09-24T09:25:35.222Z,4
2023-09-24T09:28:05.598Z,4
2023-09-24T09:30:36.086Z,4
2023-09-24T09:33:06.580Z,4
2023-09-24T09:35:37.460Z,4
2023-09-24T09:38:07.845Z,4
2023-09-24T09:40:38.301Z,4
2023-09-24T09:43:08.728Z,4
2023-09-24T09:45:39.567Z,4
2023-09-24T09:48:10.115Z,0
2023-09-24T09:50:40.572Z,4
2023-09-24T09:53:12.250Z,4
2023-09-24T09:55:42.489Z,4
2023-09-24T09:58:22.674Z,4
2023-09-24T10:00:43.808Z,0
2023-09-24T10:03:14.700Z,2
2023-09-24T10:05:45.198Z,3
2023-09-24T10:08:15.505Z,2
2023-09-24T10:10:46.175Z,5
2023-09-24T10:13:16.558Z,4
2023-09-24T10:15:47.138Z,7
2023-09-24T10:18:17.637Z,4
2023-09-24T10:20:48.009Z,5
2023-09-24T10:23:18.527Z,4
2023-09-24T10:25:49.882Z,4
2023-09-24T10:30:57.620Z,0
2023-09-24T10:33:28.178Z,0
2023-09-24T10:35:58.452Z,0
2023-09-24T10:38:29.523Z,0
2023-09-24T10:40:59.564Z,0
2023-09-24T10:43:29.574Z,0
2023-09-24T10:45:59.983Z,0
2023-09-24T10:48:44.363Z,4
2023-09-24T10:51:01.563Z,0
2023-09-24T10:53:32.457Z,2
2023-09-24T10:56:11.237Z,0
2023-09-24T10:58:33.449Z,4
2023-09-24T11:01:03.917Z,4
2023-09-24T11:03:35.206Z,4
2023-09-24T11:06:05.662Z,4
2023-09-24T11:08:36.510Z,4
2023-09-24T11:11:07.201Z,17
2023-09-24T11:13:37.937Z,17
2023-09-24T11:16:08.247Z,8
2023-09-24T11:18:38.769Z,12
2023-09-24T11:21:09.925Z,9
2023-09-24T11:23:42.619Z,8
2023-09-24T11:26:11.097Z,8
2023-09-24T11:28:42.259Z,8
2023-09-24T11:31:13.251Z,22
2023-09-24T11:33:43.827Z,16
2023-09-24T11:36:14.977Z,12
2023-09-24T11:38:45.433Z,24
2023-09-24T11:41:18.332Z,15
2023-09-24T11:43:48.795Z,16
2023-09-24T11:46:19.505Z,16
2023-09-24T11:48:50.501Z,16
2023-09-24T11:51:20.756Z,14
2023-09-24T11:53:50.879Z,12
2023-09-24T11:56:21.186Z,12
2023-09-24T11:58:51.825Z,13
2023-09-24T12:01:21.913Z,13
2023-09-24T12:03:52.329Z,16
2023-09-24T12:06:22.716Z,12
2023-09-24T12:08:51.892Z,12
2023-09-24T12:11:22.237Z,22
2023-09-24T12:13:52.511Z,20
2023-09-24T12:16:23.511Z,20
2023-09-24T12:18:54.388Z,24
2023-09-24T12:21:24.994Z,24
2023-09-24T12:23:55.429Z,16
2023-09-24T12:26:26.074Z,19
2023-09-24T12:29:02.679Z,16
2023-09-24T12:31:33.510Z,20
2023-09-24T12:34:04.011Z,20
2023-09-24T12:36:34.303Z,16
2023-09-24T12:39:04.811Z,19
2023-09-24T12:41:35.622Z,16
2023-09-24T12:44:05.943Z,16
2023-09-24T12:46:36.309Z,16
2023-09-24T12:49:05.256Z,22
2023-09-24T12:51:36.653Z,17
2023-09-24T12:54:07.641Z,16
2023-09-24T12:56:36.505Z,16
2023-09-24T12:59:07.497Z,20
2023-09-24T13:01:38.449Z,20
2023-09-24T13:04:09.287Z,19
2023-09-24T13:06:40.249Z,20
2023-09-24T13:09:10.911Z,20
2023-09-24T13:11:41.390Z,16
2023-09-24T13:14:12.249Z,16
2023-09-24T13:16:43.803Z,20
2023-09-24T13:19:14.896Z,16
2023-09-24T13:21:46.382Z,20
2023-09-24T13:24:16.383Z,20
2023-09-24T13:26:47.918Z,20
2023-09-24T13:29:18.035Z,18
2023-09-24T13:31:48.769Z,16
2023-09-24T13:34:19.484Z,20
2023-09-24T13:36:49.377Z,24
2023-09-24T13:39:19.895Z,20
2023-09-24T13:41:50.567Z,28
2023-09-24T13:44:21.420Z,32
2023-09-24T13:46:52.456Z,41
2023-09-24T13:49:23.423Z,48
2023-09-24T13:51:54.843Z,28
2023-09-24T13:54:24.949Z,24
2023-09-24T13:56:58.656Z,25
2023-09-24T13:59:28.910Z,24
2023-09-24T14:01:59.514Z,24
2023-09-24T14:04:29.948Z,23
2023-09-24T14:07:00.896Z,24
2023-09-24T14:09:31.035Z,24
2023-09-24T14:12:01.846Z,24
2023-09-24T14:14:32.771Z,20
2023-09-24T14:17:03.218Z,24
2023-09-24T14:19:34.184Z,22
2023-09-24T14:22:05.266Z,20
2023-09-24T14:24:35.585Z,24
2023-09-24T14:27:06.524Z,22
2023-09-24T14:29:37.070Z,24
2023-09-24T14:32:07.623Z,20
2023-09-24T14:34:36.672Z,22
2023-09-24T14:37:07.683Z,20
2023-09-24T14:39:38.632Z,24
2023-09-24T14:42:09.018Z,20
2023-09-24T14:44:39.809Z,24
2023-09-24T14:47:08.718Z,20
2023-09-24T14:49:39.166Z,24
2023-09-24T14:52:09.366Z,20
2023-09-24T14:54:39.919Z,20
2023-09-24T14:57:10.345Z,20
2023-09-24T14:59:40.663Z,20
2023-09-24T15:02:10.932Z,20
2023-09-24T15:04:41.203Z,16
2023-09-24T15:07:11.199Z,20
2023-09-24T15:09:41.686Z,20
2023-09-24T15:12:12.385Z,20
2023-09-24T15:14:43.088Z,22
2023-09-24T15:17:13.648Z,20
2023-09-24T15:19:44.629Z,24
2023-09-24T15:22:15.356Z,20
2023-09-24T15:24:46.615Z,28
2023-09-24T15:27:16.757Z,27
2023-09-24T15:29:48.088Z,28
2023-09-24T15:32:19.027Z,24
2023-09-24T15:34:49.607Z,20
2023-09-24T15:37:20.103Z,20
2023-09-24T15:39:51.195Z,20
2023-09-24T15:42:21.438Z,24
2023-09-24T15:44:51.602Z,20
2023-09-24T15:47:21.849Z,25
2023-09-24T15:49:53.286Z,23
2023-09-24T15:52:24.384Z,16
2023-09-24T15:54:54.890Z,16
2023-09-24T15:57:25.271Z,20
2023-09-24T15:59:56.327Z,16
2023-09-24T16:02:26.964Z,16
2023-09-24T16:04:57.652Z,15
2023-09-24T16:07:28.199Z,16
2023-09-24T16:09:58.686Z,16
2023-09-24T16:12:29.674Z,16
2023-09-24T16:15:00.443Z,16
2023-09-24T16:17:30.830Z,16
2023-09-24T16:20:01.169Z,16
2023-09-24T16:22:31.231Z,13
2023-09-24T16:25:01.613Z,12
2023-09-24T16:27:30.223Z,12
2023-09-24T16:30:00.402Z,12
2023-09-24T16:32:31.255Z,16
2023-09-24T16:35:02.212Z,19
2023-09-24T16:37:32.699Z,20
2023-09-24T16:40:02.972Z,20
2023-09-24T16:42:33.393Z,20
2023-09-24T16:45:04.103Z,21
2023-09-24T16:47:38.470Z,20
2023-09-24T16:50:08.468Z,19
2023-09-24T16:52:39.333Z,19
2023-09-24T16:55:10.311Z,16
2023-09-24T16:57:44.434Z,16
2023-09-24T17:00:14.610Z,12
2023-09-24T17:02:45.191Z,12
2023-09-24T17:05:15.618Z,12
2023-09-24T17:07:45.821Z,13
2023-09-24T17:10:16.216Z,8
2023-09-24T17:12:46.380Z,12
2023-09-24T17:15:17.688Z,12
2023-09-24T17:17:48.030Z,16
2023-09-24T17:20:18.973Z,16
2023-09-24T17:22:49.559Z,18
2023-09-24T17:25:20.199Z,18
2023-09-24T17:27:50.485Z,18
2023-09-24T17:30:20.833Z,16
2023-09-24T17:32:51.255Z,20
2023-09-24T17:35:22.037Z,20
2023-09-24T17:37:53.075Z,20
2023-09-24T17:40:23.060Z,20
2023-09-24T17:42:53.146Z,20
2023-09-24T17:45:26.730Z,19
2023-09-24T17:47:57.223Z,16
2023-09-24T17:50:28.122Z,18
2023-09-24T17:52:58.544Z,20
2023-09-24T17:55:28.626Z,20
2023-09-24T17:57:58.870Z,20
2023-09-24T18:00:29.173Z,20
2023-09-24T18:02:59.312Z,20
2023-09-24T18:05:29.517Z,16
2023-09-24T18:07:59.711Z,15
2023-09-24T18:10:29.919Z,16
2023-09-24T18:13:00.450Z,17
2023-09-24T18:15:30.597Z,16
2023-09-24T18:18:01.457Z,24
2023-09-24T18:20:31.672Z,20
2023-09-24T18:23:02.154Z,19
2023-09-24T18:25:32.489Z,14
2023-09-24T18:28:02.767Z,11
2023-09-24T18:30:33.147Z,12
2023-09-24T18:33:03.390Z,14
2023-09-24T18:35:33.394Z,14
2023-09-24T18:38:03.854Z,16
2023-09-24T18:40:34.301Z,16
2023-09-24T18:43:04.439Z,20
2023-09-24T18:45:34.891Z,19
2023-09-24T18:48:05.208Z,20
2023-09-24T18:50:35.460Z,16
2023-09-24T18:53:05.805Z,16
2023-09-24T18:55:36.465Z,16
2023-09-24T18:58:06.845Z,16
2023-09-24T19:00:35.746Z,20
2023-09-24T19:03:06.888Z,16
2023-09-24T19:05:37.135Z,8
2023-09-24T19:08:06.101Z,12
2023-09-24T19:10:36.339Z,8
2023-09-24T19:13:06.692Z,8
2023-09-24T19:15:36.476Z,5
2023-09-24T19:18:06.795Z,8
2023-09-24T19:20:37.582Z,9
2023-09-24T19:23:07.559Z,8
2023-09-24T19:25:38.067Z,8
2023-09-24T19:28:08.532Z,7
2023-09-24T19:30:39.134Z,8
2023-09-24T19:33:08.141Z,7
2023-09-24T19:35:38.612Z,8
2023-09-24T19:38:08.930Z,8
2023-09-24T19:40:39.817Z,10
2023-09-24T19:43:10.225Z,12
2023-09-24T19:45:41.127Z,12
2023-09-24T19:48:11.520Z,16
2023-09-24T19:50:41.711Z,12
2023-09-24T19:53:12.283Z,12
2023-09-24T19:55:42.631Z,12
2023-09-24T19:58:12.960Z,16
2023-09-24T20:00:44.385Z,12
2023-09-24T20:03:14.974Z,12
2023-09-24T20:05:45.408Z,12
2023-09-24T20:08:15.524Z,12
2023-09-24T20:10:45.564Z,12
2023-09-24T20:13:16.449Z,12
2023-09-24T20:15:47.032Z,8
2023-09-24T20:18:17.267Z,11
2023-09-24T20:20:47.576Z,9
2023-09-24T20:23:17.927Z,12
2023-09-24T20:25:48.442Z,12
2023-09-24T20:28:18.881Z,12
2023-09-24T20:30:47.536Z,12
2023-09-24T20:33:28.405Z,8
2023-09-24T20:35:46.375Z,11
2023-09-24T20:38:16.610Z,12
2023-09-24T20:40:46.926Z,12
2023-09-24T20:43:15.922Z,8
2023-09-24T20:45:46.199Z,8
2023-09-24T20:48:16.864Z,12
2023-09-24T20:50:47.008Z,16
2023-09-24T20:53:17.521Z,22
2023-09-24T20:55:47.998Z,20
2023-09-24T20:58:19.395Z,20
2023-09-24T21:00:49.781Z,16
2023-09-24T21:03:20.236Z,16
2023-09-24T21:05:50.531Z,12
2023-09-24T21:08:21.155Z,12
2023-09-24T21:10:51.412Z,15
2023-09-24T21:13:21.778Z,15
2023-09-24T21:15:52.339Z,15
2023-09-24T21:18:22.908Z,16
2023-09-24T21:20:53.257Z,16
2023-09-24T21:23:23.788Z,16
2023-09-24T21:25:55.372Z,16
2023-09-24T21:28:25.736Z,16
2023-09-24T21:30:56.380Z,15
2023-09-24T21:33:27.163Z,12
2023-09-24T21:35:57.016Z,12
2023-09-24T21:38:27.411Z,12
2023-09-24T21:40:58.305Z,12
2023-09-24T21:43:28.845Z,12
2023-09-24T21:45:59.727Z,16
2023-09-24T21:48:30.524Z,16
2023-09-24T21:51:00.909Z,16
2023-09-24T21:53:31.144Z,17
2023-09-24T21:56:01.369Z,20
2023-09-24T21:58:31.732Z,16
2023-09-24T22:01:02.339Z,17
2023-09-24T22:03:32.775Z,32
2023-09-24T22:06:03.144Z,24
2023-09-24T22:08:32.301Z,27
2023-09-24T22:11:02.574Z,27
2023-09-24T22:13:33.127Z,20
2023-09-24T22:16:03.962Z,12
2023-09-24T22:18:34.041Z,20
2023-09-24T22:21:04.098Z,13
2023-09-24T22:23:34.516Z,16
2023-09-24T22:26:04.532Z,12
2023-09-24T22:28:35.176Z,13
2023-09-24T22:31:05.997Z,27
2023-09-24T22:33:35.101Z,20
2023-09-24T22:36:05.446Z,16
2023-09-24T22:38:36.207Z,12
2023-09-24T22:41:06.753Z,12
2023-09-24T22:43:37.239Z,13
2023-09-24T22:46:06.184Z,13
2023-09-24T22:48:36.711Z,12
2023-09-24T22:51:06.997Z,8
2023-09-24T22:53:37.452Z,8
2023-09-24T22:56:07.748Z,8
2023-09-24T22:58:38.382Z,8
2023-09-24T23:01:08.691Z,8
2023-09-24T23:03:38.996Z,8
2023-09-24T23:06:09.413Z,11
2023-09-24T23:08:39.827Z,12
2023-09-24T23:11:10.485Z,8
2023-09-24T23:13:40.859Z,16
2023-09-24T23:16:11.465Z,17
2023-09-24T23:18:41.869Z,16
2023-09-24T23:21:12.393Z,11
2023-09-24T23:23:42.895Z,16
2023-09-24T23:26:13.621Z,15
2023-09-24T23:28:44.235Z,16
2023-09-24T23:31:14.917Z,16
2023-09-24T23:33:45.488Z,16
2023-09-24T23:36:15.816Z,19
2023-09-24T23:38:46.422Z,12
2023-09-24T23:41:16.746Z,16
2023-09-24T23:43:48.092Z,13
2023-09-24T23:46:18.512Z,12
2023-09-24T23:48:49.746Z,12
2023-09-24T23:51:18.899Z,16
2023-09-24T23:53:49.765Z,16
2023-09-24T23:56:20.412Z,12
2023-09-24T23:58:51.283Z,18
